sensor_id;sensor_type;location;lat;lon;timestamp;temperature;humidity
9177;DHT22;4623;54.310;10.112;2022-11-04T00:01:51;11.40;99.90
9177;DHT22;4623;54.310;10.112;2022-11-04T00:04:20;11.40;99.90
9177;DHT22;4623;54.310;10.112;2022-11-04T00:06:46;11.40;99.90
9177;DHT22;4623;54.310;10.112;2022-11-04T00:09:16;11.40;99.90
9177;DHT22;4623;54.310;10.112;2022-11-04T00:11:42;11.30;99.90
9177;DHT22;4623;54.310;10.112;2022-11-04T00:14:28;11.40;99.90
9177;DHT22;4623;54.310;10.112;2022-11-04T00:16:55;11.40;99.90
9177;DHT22;4623;54.310;10.112;2022-11-04T00:19:39;11.40;99.90
9177;DHT22;4623;54.310;10.112;2022-11-04T00:22:23;11.40;99.90
9177;DHT22;4623;54.310;10.112;2022-11-04T00:25:07;11.40;99.90
9177;DHT22;4623;54.310;10.112;2022-11-04T00:27:52;11.30;99.90
9177;DHT22;4623;54.310;10.112;2022-11-04T00:30:36;11.40;99.90
9177;DHT22;4623;54.310;10.112;2022-11-04T00:33:01;11.30;99.90
9177;DHT22;4623;54.310;10.112;2022-11-04T00:35:50;11.30;99.90
9177;DHT22;4623;54.310;10.112;2022-11-04T00:38:16;11.40;99.90
9177;DHT22;4623;54.310;10.112;2022-11-04T00:40:42;11.40;99.90
9177;DHT22;4623;54.310;10.112;2022-11-04T00:43:08;11.40;99.90
9177;DHT22;4623;54.310;10.112;2022-11-04T00:45:34;11.40;99.90
9177;DHT22;4623;54.310;10.112;2022-11-04T00:47:59;11.40;99.90
9177;DHT22;4623;54.310;10.112;2022-11-04T00:50:25;11.40;99.90
9177;DHT22;4623;54.310;10.112;2022-11-04T00:52:50;11.40;99.90
9177;DHT22;4623;54.310;10.112;2022-11-04T00:55:16;11.40;99.90
9177;DHT22;4623;54.310;10.112;2022-11-04T00:57:42;11.40;99.90
9177;DHT22;4623;54.310;10.112;2022-11-04T01:00:08;11.40;99.90
9177;DHT22;4623;54.310;10.112;2022-11-04T01:02:33;11.40;99.90
9177;DHT22;4623;54.310;10.112;2022-11-04T01:04:59;11.40;99.90
9177;DHT22;4623;54.310;10.112;2022-11-04T01:07:25;11.50;99.90
9177;DHT22;4623;54.310;10.112;2022-11-04T01:09:51;11.50;99.90
9177;DHT22;4623;54.310;10.112;2022-11-04T01:12:16;11.50;99.90
9177;DHT22;4623;54.310;10.112;2022-11-04T01:14:42;11.50;99.90
9177;DHT22;4623;54.310;10.112;2022-11-04T01:17:08;11.50;99.90
9177;DHT22;4623;54.310;10.112;2022-11-04T01:19:33;11.50;99.90
9177;DHT22;4623;54.310;10.112;2022-11-04T01:21:59;11.50;99.90
9177;DHT22;4623;54.310;10.112;2022-11-04T01:24:25;11.60;99.90
9177;DHT22;4623;54.310;10.112;2022-11-04T01:26:50;11.60;99.90
9177;DHT22;4623;54.310;10.112;2022-11-04T01:29:16;11.50;99.90
9177;DHT22;4623;54.310;10.112;2022-11-04T01:31:42;11.50;99.90
9177;DHT22;4623;54.310;10.112;2022-11-04T01:34:08;11.50;99.90
9177;DHT22;4623;54.310;10.112;2022-11-04T01:36:34;11.50;99.90
9177;DHT22;4623;54.310;10.112;2022-11-04T01:38:59;11.50;99.90
9177;DHT22;4623;54.310;10.112;2022-11-04T01:41:30;11.50;99.90
9177;DHT22;4623;54.310;10.112;2022-11-04T01:43:59;11.50;99.90
9177;DHT22;4623;54.310;10.112;2022-11-04T01:46:38;11.50;99.90
9177;DHT22;4623;54.310;10.112;2022-11-04T01:52:00;11.50;99.90
9177;DHT22;4623;54.310;10.112;2022-11-04T01:54:27;11.50;99.90
9177;DHT22;4623;54.310;10.112;2022-11-04T01:56:53;11.60;99.90
9177;DHT22;4623;54.310;10.112;2022-11-04T01:59:24;11.50;99.90
9177;DHT22;4623;54.310;10.112;2022-11-04T02:01:51;11.50;99.90
9177;DHT22;4623;54.310;10.112;2022-11-04T02:04:18;11.50;99.90
9177;DHT22;4623;54.310;10.112;2022-11-04T02:06:57;11.50;99.90
9177;DHT22;4623;54.310;10.112;2022-11-04T02:09:25;11.40;99.90
9177;DHT22;4623;54.310;10.112;2022-11-04T02:11:52;11.40;99.90
9177;DHT22;4623;54.310;10.112;2022-11-04T02:14:36;11.30;99.90
9177;DHT22;4623;54.310;10.112;2022-11-04T02:25:50;11.40;99.90
9177;DHT22;4623;54.310;10.112;2022-11-04T02:39:07;11.40;99.90
9177;DHT22;4623;54.310;10.112;2022-11-04T02:41:55;11.40;99.90
9177;DHT22;4623;54.310;10.112;2022-11-04T02:44:34;11.40;99.90
9177;DHT22;4623;54.310;10.112;2022-11-04T02:47:14;11.40;99.90
9177;DHT22;4623;54.310;10.112;2022-11-04T02:49:49;11.50;99.90
9177;DHT22;4623;54.310;10.112;2022-11-04T02:52:47;11.50;99.90
9177;DHT22;4623;54.310;10.112;2022-11-04T02:55:36;11.40;99.90
9177;DHT22;4623;54.310;10.112;2022-11-04T02:58:05;11.50;99.90
9177;DHT22;4623;54.310;10.112;2022-11-04T03:00:35;11.50;99.90
9177;DHT22;4623;54.310;10.112;2022-11-04T03:03:15;11.40;99.90
9177;DHT22;4623;54.310;10.112;2022-11-04T03:05:45;11.30;99.90
9177;DHT22;4623;54.310;10.112;2022-11-04T03:08:37;11.30;99.90
9177;DHT22;4623;54.310;10.112;2022-11-04T03:11:21;11.30;99.90
9177;DHT22;4623;54.310;10.112;2022-11-04T03:16:50;11.30;99.90
9177;DHT22;4623;54.310;10.112;2022-11-04T03:19:37;11.20;99.90
9177;DHT22;4623;54.310;10.112;2022-11-04T03:22:12;11.10;99.90
9177;DHT22;4623;54.310;10.112;2022-11-04T03:24:40;11.10;99.90
9177;DHT22;4623;54.310;10.112;2022-11-04T03:27:17;11.10;99.90
9177;DHT22;4623;54.310;10.112;2022-11-04T03:29:48;11.10;99.90
9177;DHT22;4623;54.310;10.112;2022-11-04T03:34:46;11.20;99.90
9177;DHT22;4623;54.310;10.112;2022-11-04T03:37:12;11.20;99.90
9177;DHT22;4623;54.310;10.112;2022-11-04T03:39:37;11.20;99.90
9177;DHT22;4623;54.310;10.112;2022-11-04T03:42:07;11.20;99.90
9177;DHT22;4623;54.310;10.112;2022-11-04T03:44:49;11.20;99.90
9177;DHT22;4623;54.310;10.112;2022-11-04T03:47:16;11.30;99.90
9177;DHT22;4623;54.310;10.112;2022-11-04T03:49:44;11.30;99.90
9177;DHT22;4623;54.310;10.112;2022-11-04T03:52:10;11.40;99.90
9177;DHT22;4623;54.310;10.112;2022-11-04T03:54:36;11.40;99.90
9177;DHT22;4623;54.310;10.112;2022-11-04T04:03:05;11.40;99.90
9177;DHT22;4623;54.310;10.112;2022-11-04T04:08:27;11.40;99.90
9177;DHT22;4623;54.310;10.112;2022-11-04T04:13:33;11.30;99.90
9177;DHT22;4623;54.310;10.112;2022-11-04T04:16:31;11.40;99.90
9177;DHT22;4623;54.310;10.112;2022-11-04T04:19:27;11.40;99.90
9177;DHT22;4623;54.310;10.112;2022-11-04T04:25:05;11.30;99.90
9177;DHT22;4623;54.310;10.112;2022-11-04T04:27:50;11.30;99.90
9177;DHT22;4623;54.310;10.112;2022-11-04T04:30:18;11.30;99.90
9177;DHT22;4623;54.310;10.112;2022-11-04T04:32:45;11.30;99.90
9177;DHT22;4623;54.310;10.112;2022-11-04T04:35:12;11.40;99.90
9177;DHT22;4623;54.310;10.112;2022-11-04T04:38:00;11.40;99.90
9177;DHT22;4623;54.310;10.112;2022-11-04T04:40:50;11.40;99.90
9177;DHT22;4623;54.310;10.112;2022-11-04T04:43:37;11.40;99.90
9177;DHT22;4623;54.310;10.112;2022-11-04T04:46:24;11.40;99.90
9177;DHT22;4623;54.310;10.112;2022-11-04T04:48:50;11.40;99.90
9177;DHT22;4623;54.310;10.112;2022-11-04T04:51:16;11.40;99.90
9177;DHT22;4623;54.310;10.112;2022-11-04T04:53:41;11.40;99.90
9177;DHT22;4623;54.310;10.112;2022-11-04T04:56:07;11.40;99.90
9177;DHT22;4623;54.310;10.112;2022-11-04T04:58:33;11.40;99.90
9177;DHT22;4623;54.310;10.112;2022-11-04T05:00:58;11.40;99.90
9177;DHT22;4623;54.310;10.112;2022-11-04T05:03:24;11.50;99.90
9177;DHT22;4623;54.310;10.112;2022-11-04T05:05:49;11.50;99.90
9177;DHT22;4623;54.310;10.112;2022-11-04T05:08:15;11.50;99.90
9177;DHT22;4623;54.310;10.112;2022-11-04T05:10:40;11.50;99.90
9177;DHT22;4623;54.310;10.112;2022-11-04T05:13:06;11.50;99.90
9177;DHT22;4623;54.310;10.112;2022-11-04T05:15:50;11.50;99.90
9177;DHT22;4623;54.310;10.112;2022-11-04T05:18:16;11.50;99.90
9177;DHT22;4623;54.310;10.112;2022-11-04T05:20:41;11.60;99.90
9177;DHT22;4623;54.310;10.112;2022-11-04T05:23:07;11.60;99.90
9177;DHT22;4623;54.310;10.112;2022-11-04T05:25:37;11.60;99.90
9177;DHT22;4623;54.310;10.112;2022-11-04T05:28:04;11.60;99.90
9177;DHT22;4623;54.310;10.112;2022-11-04T05:30:30;11.60;99.90
9177;DHT22;4623;54.310;10.112;2022-11-04T05:32:56;11.60;99.90
9177;DHT22;4623;54.310;10.112;2022-11-04T05:35:22;11.70;99.90
9177;DHT22;4623;54.310;10.112;2022-11-04T05:37:48;11.70;99.90
9177;DHT22;4623;54.310;10.112;2022-11-04T05:40:13;11.70;99.90
9177;DHT22;4623;54.310;10.112;2022-11-04T05:42:39;11.70;99.90
9177;DHT22;4623;54.310;10.112;2022-11-04T05:45:05;11.70;99.90
9177;DHT22;4623;54.310;10.112;2022-11-04T05:47:31;11.70;99.90
9177;DHT22;4623;54.310;10.112;2022-11-04T05:49:56;11.70;99.90
9177;DHT22;4623;54.310;10.112;2022-11-04T05:52:22;11.80;99.90
9177;DHT22;4623;54.310;10.112;2022-11-04T05:54:47;11.70;99.90
9177;DHT22;4623;54.310;10.112;2022-11-04T05:57:13;11.70;99.90
9177;DHT22;4623;54.310;10.112;2022-11-04T05:59:39;11.60;99.90
9177;DHT22;4623;54.310;10.112;2022-11-04T06:02:04;11.60;99.90
9177;DHT22;4623;54.310;10.112;2022-11-04T06:04:30;11.60;99.90
9177;DHT22;4623;54.310;10.112;2022-11-04T06:06:56;11.60;99.90
9177;DHT22;4623;54.310;10.112;2022-11-04T06:09:21;11.50;99.90
9177;DHT22;4623;54.310;10.112;2022-11-04T06:12:08;11.50;99.90
9177;DHT22;4623;54.310;10.112;2022-11-04T06:14:35;11.50;99.90
9177;DHT22;4623;54.310;10.112;2022-11-04T06:17:01;11.50;99.90
9177;DHT22;4623;54.310;10.112;2022-11-04T06:19:27;11.50;99.90
9177;DHT22;4623;54.310;10.112;2022-11-04T06:21:53;11.50;99.90
9177;DHT22;4623;54.310;10.112;2022-11-04T06:24:18;11.50;99.90
9177;DHT22;4623;54.310;10.112;2022-11-04T06:26:44;11.50;99.90
9177;DHT22;4623;54.310;10.112;2022-11-04T06:29:10;11.40;99.90
9177;DHT22;4623;54.310;10.112;2022-11-04T06:31:36;11.50;99.90
9177;DHT22;4623;54.310;10.112;2022-11-04T06:34:01;11.40;99.90
9177;DHT22;4623;54.310;10.112;2022-11-04T06:36:27;11.50;99.90
9177;DHT22;4623;54.310;10.112;2022-11-04T06:38:53;11.40;99.90
9177;DHT22;4623;54.310;10.112;2022-11-04T06:41:19;11.50;99.90
9177;DHT22;4623;54.310;10.112;2022-11-04T06:43:44;11.50;99.90
9177;DHT22;4623;54.310;10.112;2022-11-04T06:46:33;11.50;99.90
9177;DHT22;4623;54.310;10.112;2022-11-04T06:48:59;11.60;99.90
9177;DHT22;4623;54.310;10.112;2022-11-04T06:51:25;11.60;99.90
9177;DHT22;4623;54.310;10.112;2022-11-04T06:53:50;11.50;99.90
9177;DHT22;4623;54.310;10.112;2022-11-04T06:56:16;11.50;99.90
9177;DHT22;4623;54.310;10.112;2022-11-04T06:58:42;11.50;99.90
9177;DHT22;4623;54.310;10.112;2022-11-04T07:01:07;11.60;99.90
9177;DHT22;4623;54.310;10.112;2022-11-04T07:03:33;11.60;99.90
9177;DHT22;4623;54.310;10.112;2022-11-04T07:06:04;11.60;99.90
9177;DHT22;4623;54.310;10.112;2022-11-04T07:08:30;11.60;99.90
9177;DHT22;4623;54.310;10.112;2022-11-04T07:10:55;11.60;99.90
9177;DHT22;4623;54.310;10.112;2022-11-04T07:13:21;11.60;99.90
9177;DHT22;4623;54.310;10.112;2022-11-04T07:15:47;11.60;99.90
9177;DHT22;4623;54.310;10.112;2022-11-04T07:18:12;11.50;99.90
9177;DHT22;4623;54.310;10.112;2022-11-04T07:20:38;11.60;99.90
9177;DHT22;4623;54.310;10.112;2022-11-04T07:23:04;11.60;99.90
9177;DHT22;4623;54.310;10.112;2022-11-04T07:25:30;11.60;99.90
9177;DHT22;4623;54.310;10.112;2022-11-04T07:27:55;11.60;99.90
9177;DHT22;4623;54.310;10.112;2022-11-04T07:30:21;11.60;99.90
9177;DHT22;4623;54.310;10.112;2022-11-04T07:32:47;11.60;99.90
9177;DHT22;4623;54.310;10.112;2022-11-04T07:35:13;11.60;99.90
9177;DHT22;4623;54.310;10.112;2022-11-04T07:37:38;11.60;99.90
9177;DHT22;4623;54.310;10.112;2022-11-04T07:40:05;11.70;99.90
9177;DHT22;4623;54.310;10.112;2022-11-04T07:42:30;11.60;99.90
9177;DHT22;4623;54.310;10.112;2022-11-04T07:44:58;11.70;99.90
9177;DHT22;4623;54.310;10.112;2022-11-04T07:47:24;11.70;99.90
9177;DHT22;4623;54.310;10.112;2022-11-04T07:49:49;11.70;99.90
9177;DHT22;4623;54.310;10.112;2022-11-04T07:52:15;11.80;99.90
9177;DHT22;4623;54.310;10.112;2022-11-04T07:54:41;11.80;99.90
9177;DHT22;4623;54.310;10.112;2022-11-04T07:57:06;11.90;99.90
9177;DHT22;4623;54.310;10.112;2022-11-04T07:59:32;12.00;99.90
9177;DHT22;4623;54.310;10.112;2022-11-04T08:01:58;12.10;99.90
9177;DHT22;4623;54.310;10.112;2022-11-04T08:04:23;12.10;99.90
9177;DHT22;4623;54.310;10.112;2022-11-04T08:06:49;12.10;99.90
9177;DHT22;4623;54.310;10.112;2022-11-04T08:09:15;12.10;99.90
9177;DHT22;4623;54.310;10.112;2022-11-04T08:11:40;12.00;99.90
9177;DHT22;4623;54.310;10.112;2022-11-04T08:14:07;12.00;99.90
9177;DHT22;4623;54.310;10.112;2022-11-04T08:16:33;11.90;99.90
9177;DHT22;4623;54.310;10.112;2022-11-04T08:18:58;11.90;99.90
9177;DHT22;4623;54.310;10.112;2022-11-04T08:21:29;11.90;99.90
9177;DHT22;4623;54.310;10.112;2022-11-04T08:23:55;11.90;99.90
9177;DHT22;4623;54.310;10.112;2022-11-04T08:26:21;11.90;99.90
9177;DHT22;4623;54.310;10.112;2022-11-04T08:28:48;11.90;99.90
9177;DHT22;4623;54.310;10.112;2022-11-04T08:31:20;11.90;99.90
9177;DHT22;4623;54.310;10.112;2022-11-04T08:33:46;11.90;99.90
9177;DHT22;4623;54.310;10.112;2022-11-04T08:36:32;11.90;99.90
9177;DHT22;4623;54.310;10.112;2022-11-04T08:38:59;12.00;99.90
9177;DHT22;4623;54.310;10.112;2022-11-04T08:41:29;12.00;99.90
9177;DHT22;4623;54.310;10.112;2022-11-04T08:43:56;12.20;99.90
9177;DHT22;4623;54.310;10.112;2022-11-04T08:46:28;12.20;99.90
9177;DHT22;4623;54.310;10.112;2022-11-04T08:48:56;12.20;99.90
9177;DHT22;4623;54.310;10.112;2022-11-04T08:51:24;12.20;99.90
9177;DHT22;4623;54.310;10.112;2022-11-04T08:53:50;12.20;99.90
9177;DHT22;4623;54.310;10.112;2022-11-04T08:56:21;12.20;99.90
9177;DHT22;4623;54.310;10.112;2022-11-04T08:58:48;12.20;99.90
9177;DHT22;4623;54.310;10.112;2022-11-04T09:01:14;12.20;99.90
9177;DHT22;4623;54.310;10.112;2022-11-04T09:03:41;12.20;99.90
9177;DHT22;4623;54.310;10.112;2022-11-04T09:06:14;12.20;99.90
9177;DHT22;4623;54.310;10.112;2022-11-04T09:08:41;12.30;99.90
9177;DHT22;4623;54.310;10.112;2022-11-04T09:11:10;12.30;99.90
9177;DHT22;4623;54.310;10.112;2022-11-04T09:13:36;12.40;99.90
9177;DHT22;4623;54.310;10.112;2022-11-04T09:16:03;12.40;99.90
9177;DHT22;4623;54.310;10.112;2022-11-04T09:18:29;12.40;99.90
9177;DHT22;4623;54.310;10.112;2022-11-04T09:20:57;12.40;99.90
9177;DHT22;4623;54.310;10.112;2022-11-04T09:23:24;12.30;99.90
9177;DHT22;4623;54.310;10.112;2022-11-04T09:25:50;12.30;99.90
9177;DHT22;4623;54.310;10.112;2022-11-04T09:28:16;12.30;99.90
9177;DHT22;4623;54.310;10.112;2022-11-04T09:30:41;12.20;99.90
9177;DHT22;4623;54.310;10.112;2022-11-04T09:33:07;12.20;99.90
9177;DHT22;4623;54.310;10.112;2022-11-04T09:35:33;12.20;99.90
9177;DHT22;4623;54.310;10.112;2022-11-04T09:37:59;12.20;99.90
9177;DHT22;4623;54.310;10.112;2022-11-04T09:40:26;12.40;99.90
9177;DHT22;4623;54.310;10.112;2022-11-04T09:45:18;13.00;99.90
9177;DHT22;4623;54.310;10.112;2022-11-04T09:47:50;12.90;99.90
9177;DHT22;4623;54.310;10.112;2022-11-04T09:50:26;12.90;99.90
9177;DHT22;4623;54.310;10.112;2022-11-04T09:52:57;12.90;99.90
9177;DHT22;4623;54.310;10.112;2022-11-04T09:55:56;12.80;99.90
9177;DHT22;4623;54.310;10.112;2022-11-04T09:58:23;12.80;99.90
9177;DHT22;4623;54.310;10.112;2022-11-04T10:01:11;12.70;99.90
9177;DHT22;4623;54.310;10.112;2022-11-04T10:12:18;12.60;99.90
9177;DHT22;4623;54.310;10.112;2022-11-04T10:15:00;12.60;99.90
9177;DHT22;4623;54.310;10.112;2022-11-04T10:20:23;12.60;99.90
9177;DHT22;4623;54.310;10.112;2022-11-04T10:22:57;12.50;99.90
9177;DHT22;4623;54.310;10.112;2022-11-04T10:25:48;12.60;99.90
9177;DHT22;4623;54.310;10.112;2022-11-04T10:28:18;12.60;99.90
9177;DHT22;4623;54.310;10.112;2022-11-04T10:30:46;12.60;99.90
9177;DHT22;4623;54.310;10.112;2022-11-04T10:33:32;12.70;99.90
9177;DHT22;4623;54.310;10.112;2022-11-04T10:36:05;13.00;99.90
9177;DHT22;4623;54.310;10.112;2022-11-04T10:38:47;13.40;99.90
9177;DHT22;4623;54.310;10.112;2022-11-04T10:41:32;13.50;99.90
9177;DHT22;4623;54.310;10.112;2022-11-04T10:44:06;13.50;99.90
9177;DHT22;4623;54.310;10.112;2022-11-04T10:47:14;14.10;99.90
9177;DHT22;4623;54.310;10.112;2022-11-04T10:52:16;14.70;99.90
9177;DHT22;4623;54.310;10.112;2022-11-04T10:54:44;14.30;99.90
9177;DHT22;4623;54.310;10.112;2022-11-04T10:57:12;14.20;99.90
9177;DHT22;4623;54.310;10.112;2022-11-04T11:07:52;16.10;99.90
9177;DHT22;4623;54.310;10.112;2022-11-04T11:10:30;16.20;99.90
9177;DHT22;4623;54.310;10.112;2022-11-04T11:12:59;16.30;99.90
9177;DHT22;4623;54.310;10.112;2022-11-04T11:15:33;16.40;99.90
9177;DHT22;4623;54.310;10.112;2022-11-04T11:18:20;16.50;99.90
9177;DHT22;4623;54.310;10.112;2022-11-04T11:26:07;16.80;99.90
9177;DHT22;4623;54.310;10.112;2022-11-04T11:28:33;16.40;99.90
9177;DHT22;4623;54.310;10.112;2022-11-04T11:31:05;16.00;99.90
9177;DHT22;4623;54.310;10.112;2022-11-04T11:33:39;15.70;99.90
9177;DHT22;4623;54.310;10.112;2022-11-04T11:36:13;15.30;99.90
9177;DHT22;4623;54.310;10.112;2022-11-04T11:38:56;15.60;99.90
9177;DHT22;4623;54.310;10.112;2022-11-04T11:41:23;15.90;99.90
9177;DHT22;4623;54.310;10.112;2022-11-04T11:44:06;15.90;99.90
9177;DHT22;4623;54.310;10.112;2022-11-04T11:46:49;15.60;99.90
9177;DHT22;4623;54.310;10.112;2022-11-04T11:49:23;15.30;99.90
9177;DHT22;4623;54.310;10.112;2022-11-04T11:51:49;14.90;99.90
9177;DHT22;4623;54.310;10.112;2022-11-04T11:54:16;14.70;99.90
9177;DHT22;4623;54.310;10.112;2022-11-04T11:56:49;14.50;99.90
9177;DHT22;4623;54.310;10.112;2022-11-04T12:04:43;13.80;99.90
9177;DHT22;4623;54.310;10.112;2022-11-04T12:10:29;13.80;99.90
9177;DHT22;4623;54.310;10.112;2022-11-04T12:13:03;14.00;99.90
9177;DHT22;4623;54.310;10.112;2022-11-04T12:18:41;14.20;99.90
9177;DHT22;4623;54.310;10.112;2022-11-04T12:21:16;14.10;99.90
9177;DHT22;4623;54.310;10.112;2022-11-04T12:40:30;13.70;99.90
9177;DHT22;4623;54.310;10.112;2022-11-04T12:43:19;13.70;99.90
9177;DHT22;4623;54.310;10.112;2022-11-04T12:46:12;13.70;99.90
9177;DHT22;4623;54.310;10.112;2022-11-04T12:51:51;13.50;99.90
9177;DHT22;4623;54.310;10.112;2022-11-04T12:56:55;13.20;99.90
9177;DHT22;4623;54.310;10.112;2022-11-04T12:59:36;13.30;99.90
9177;DHT22;4623;54.310;10.112;2022-11-04T13:05:04;13.30;99.90
9177;DHT22;4623;54.310;10.112;2022-11-04T13:07:51;13.30;99.90
9177;DHT22;4623;54.310;10.112;2022-11-04T13:10:26;13.30;99.90
9177;DHT22;4623;54.310;10.112;2022-11-04T13:12:56;13.70;99.90
9177;DHT22;4623;54.310;10.112;2022-11-04T13:15:27;14.30;99.90
9177;DHT22;4623;54.310;10.112;2022-11-04T13:18:03;14.50;99.90
9177;DHT22;4623;54.310;10.112;2022-11-04T13:20:40;14.80;99.90
9177;DHT22;4623;54.310;10.112;2022-11-04T13:23:13;15.30;99.90
9177;DHT22;4623;54.310;10.112;2022-11-04T13:25:43;15.80;99.90
9177;DHT22;4623;54.310;10.112;2022-11-04T13:28:15;16.40;99.90
9177;DHT22;4623;54.310;10.112;2022-11-04T13:31:03;16.20;99.90
9177;DHT22;4623;54.310;10.112;2022-11-04T13:33:54;16.10;99.90
9177;DHT22;4623;54.310;10.112;2022-11-04T13:36:59;15.90;99.90
9177;DHT22;4623;54.310;10.112;2022-11-04T13:39:32;15.70;99.90
9177;DHT22;4623;54.310;10.112;2022-11-04T13:44:28;15.50;99.90
9177;DHT22;4623;54.310;10.112;2022-11-04T13:46:57;15.40;99.90
9177;DHT22;4623;54.310;10.112;2022-11-04T13:49:27;15.20;99.90
9177;DHT22;4623;54.310;10.112;2022-11-04T13:52:07;15.00;99.90
9177;DHT22;4623;54.310;10.112;2022-11-04T13:54:52;14.80;99.90
9177;DHT22;4623;54.310;10.112;2022-11-04T14:00:25;14.50;99.90
9177;DHT22;4623;54.310;10.112;2022-11-04T14:02:56;14.20;99.90
9177;DHT22;4623;54.310;10.112;2022-11-04T14:16:04;14.00;99.90
9177;DHT22;4623;54.310;10.112;2022-11-04T14:18:35;13.90;99.90
9177;DHT22;4623;54.310;10.112;2022-11-04T14:21:19;13.70;99.90
9177;DHT22;4623;54.310;10.112;2022-11-04T14:23:49;13.60;99.90
9177;DHT22;4623;54.310;10.112;2022-11-04T14:26:24;13.50;99.90
9177;DHT22;4623;54.310;10.112;2022-11-04T14:29:04;13.60;99.90
9177;DHT22;4623;54.310;10.112;2022-11-04T14:34:01;13.40;99.90
9177;DHT22;4623;54.310;10.112;2022-11-04T14:36:37;13.40;99.90
9177;DHT22;4623;54.310;10.112;2022-11-04T14:41:54;13.40;99.90
9177;DHT22;4623;54.310;10.112;2022-11-04T14:44:45;13.40;99.90
9177;DHT22;4623;54.310;10.112;2022-11-04T14:47:21;13.30;99.90
9177;DHT22;4623;54.310;10.112;2022-11-04T14:52:45;13.20;99.90
9177;DHT22;4623;54.310;10.112;2022-11-04T15:00:34;12.90;99.90
9177;DHT22;4623;54.310;10.112;2022-11-04T15:05:48;12.80;99.90
9177;DHT22;4623;54.310;10.112;2022-11-04T15:13:34;12.80;99.90
9177;DHT22;4623;54.310;10.112;2022-11-04T15:16:09;12.70;99.90
9177;DHT22;4623;54.310;10.112;2022-11-04T15:18:38;12.70;99.90
9177;DHT22;4623;54.310;10.112;2022-11-04T15:21:06;12.70;99.90
9177;DHT22;4623;54.310;10.112;2022-11-04T15:23:40;12.70;99.90
9177;DHT22;4623;54.310;10.112;2022-11-04T15:26:22;12.70;99.90
9177;DHT22;4623;54.310;10.112;2022-11-04T15:28:50;12.60;99.90
9177;DHT22;4623;54.310;10.112;2022-11-04T15:31:22;12.60;99.90
9177;DHT22;4623;54.310;10.112;2022-11-04T15:33:52;12.50;99.90
9177;DHT22;4623;54.310;10.112;2022-11-04T15:36:24;12.40;99.90
9177;DHT22;4623;54.310;10.112;2022-11-04T15:41:26;12.40;99.90
9177;DHT22;4623;54.310;10.112;2022-11-04T15:44:20;12.50;99.90
9177;DHT22;4623;54.310;10.112;2022-11-04T15:46:49;12.50;99.90
9177;DHT22;4623;54.310;10.112;2022-11-04T15:49:41;12.40;99.90
9177;DHT22;4623;54.310;10.112;2022-11-04T15:52:10;12.40;99.90
9177;DHT22;4623;54.310;10.112;2022-11-04T15:54:40;12.30;99.90
9177;DHT22;4623;54.310;10.112;2022-11-04T15:57:14;12.30;99.90
9177;DHT22;4623;54.310;10.112;2022-11-04T15:59:49;12.30;99.90
9177;DHT22;4623;54.310;10.112;2022-11-04T16:02:44;12.30;99.90
9177;DHT22;4623;54.310;10.112;2022-11-04T16:07:41;12.40;99.90
9177;DHT22;4623;54.310;10.112;2022-11-04T16:10:32;12.30;99.90
9177;DHT22;4623;54.310;10.112;2022-11-04T16:13:21;12.30;99.90
9177;DHT22;4623;54.310;10.112;2022-11-04T16:18:38;12.40;99.90
9177;DHT22;4623;54.310;10.112;2022-11-04T16:24:07;12.30;99.90
9177;DHT22;4623;54.310;10.112;2022-11-04T16:26:39;12.30;99.90
9177;DHT22;4623;54.310;10.112;2022-11-04T16:29:08;12.20;99.90
9177;DHT22;4623;54.310;10.112;2022-11-04T16:31:35;12.10;99.90
9177;DHT22;4623;54.310;10.112;2022-11-04T16:34:02;12.10;99.90
9177;DHT22;4623;54.310;10.112;2022-11-04T16:36:28;12.10;99.90
9177;DHT22;4623;54.310;10.112;2022-11-04T16:38:59;12.10;99.90
9177;DHT22;4623;54.310;10.112;2022-11-04T16:41:28;12.10;99.90
9177;DHT22;4623;54.310;10.112;2022-11-04T16:43:54;12.10;99.90
9177;DHT22;4623;54.310;10.112;2022-11-04T16:46:20;12.10;99.90
9177;DHT22;4623;54.310;10.112;2022-11-04T16:48:47;12.00;99.90
9177;DHT22;4623;54.310;10.112;2022-11-04T16:51:18;12.00;99.90
9177;DHT22;4623;54.310;10.112;2022-11-04T16:53:48;12.00;99.90
9177;DHT22;4623;54.310;10.112;2022-11-04T16:56:15;12.00;99.90
9177;DHT22;4623;54.310;10.112;2022-11-04T16:58:41;11.90;99.90
9177;DHT22;4623;54.310;10.112;2022-11-04T17:01:10;11.90;99.90
9177;DHT22;4623;54.310;10.112;2022-11-04T17:03:37;11.90;99.90
9177;DHT22;4623;54.310;10.112;2022-11-04T17:06:03;11.80;99.90
9177;DHT22;4623;54.310;10.112;2022-11-04T17:08:29;11.90;99.90
9177;DHT22;4623;54.310;10.112;2022-11-04T17:10:54;11.90;99.90
9177;DHT22;4623;54.310;10.112;2022-11-04T17:13:20;11.80;99.90
9177;DHT22;4623;54.310;10.112;2022-11-04T17:15:46;11.80;99.90
9177;DHT22;4623;54.310;10.112;2022-11-04T17:18:13;11.70;99.90
9177;DHT22;4623;54.310;10.112;2022-11-04T17:20:40;11.70;99.90
9177;DHT22;4623;54.310;10.112;2022-11-04T17:23:05;11.70;99.90
9177;DHT22;4623;54.310;10.112;2022-11-04T17:25:31;11.60;99.90
9177;DHT22;4623;54.310;10.112;2022-11-04T17:27:57;11.50;99.90
9177;DHT22;4623;54.310;10.112;2022-11-04T17:30:23;11.50;99.90
9177;DHT22;4623;54.310;10.112;2022-11-04T17:32:49;11.50;99.90
9177;DHT22;4623;54.310;10.112;2022-11-04T17:35:15;11.40;99.90
9177;DHT22;4623;54.310;10.112;2022-11-04T17:37:41;11.40;99.90
9177;DHT22;4623;54.310;10.112;2022-11-04T17:40:13;11.30;99.90
9177;DHT22;4623;54.310;10.112;2022-11-04T17:42:39;11.30;99.90
9177;DHT22;4623;54.310;10.112;2022-11-04T17:45:23;11.30;99.90
9177;DHT22;4623;54.310;10.112;2022-11-04T17:47:49;11.20;99.90
9177;DHT22;4623;54.310;10.112;2022-11-04T17:50:15;11.20;99.90
9177;DHT22;4623;54.310;10.112;2022-11-04T17:52:40;11.10;99.90
9177;DHT22;4623;54.310;10.112;2022-11-04T17:55:10;11.10;99.90
9177;DHT22;4623;54.310;10.112;2022-11-04T17:57:35;11.10;99.90
9177;DHT22;4623;54.310;10.112;2022-11-04T18:00:01;11.00;99.90
9177;DHT22;4623;54.310;10.112;2022-11-04T18:02:32;11.00;99.90
9177;DHT22;4623;54.310;10.112;2022-11-04T18:04:58;10.90;99.90
9177;DHT22;4623;54.310;10.112;2022-11-04T18:07:26;10.90;99.90
9177;DHT22;4623;54.310;10.112;2022-11-04T18:09:52;10.90;99.90
9177;DHT22;4623;54.310;10.112;2022-11-04T18:12:17;10.80;99.90
9177;DHT22;4623;54.310;10.112;2022-11-04T18:15:09;10.80;99.90
9177;DHT22;4623;54.310;10.112;2022-11-04T18:17:39;10.80;99.90
9177;DHT22;4623;54.310;10.112;2022-11-04T18:20:06;10.80;99.90
9177;DHT22;4623;54.310;10.112;2022-11-04T18:22:34;10.70;99.90
9177;DHT22;4623;54.310;10.112;2022-11-04T18:24:59;10.70;99.90
9177;DHT22;4623;54.310;10.112;2022-11-04T18:30:00;10.70;99.90
9177;DHT22;4623;54.310;10.112;2022-11-04T18:32:26;10.70;99.90
9177;DHT22;4623;54.310;10.112;2022-11-04T18:34:51;10.70;99.90
9177;DHT22;4623;54.310;10.112;2022-11-04T18:37:18;10.60;99.90
9177;DHT22;4623;54.310;10.112;2022-11-04T18:39:44;10.60;99.90
9177;DHT22;4623;54.310;10.112;2022-11-04T18:42:09;10.60;99.90
9177;DHT22;4623;54.310;10.112;2022-11-04T18:44:35;10.50;99.90
9177;DHT22;4623;54.310;10.112;2022-11-04T18:47:01;10.50;99.90
9177;DHT22;4623;54.310;10.112;2022-11-04T18:49:27;10.40;99.90